createdAt,value
2022-12-12T00:01:32.811Z,29.55
2022-12-12T00:04:00.557Z,28.42
2022-12-12T00:06:29.303Z,29.83
2022-12-12T00:08:57.280Z,30.55
2022-12-12T00:11:25.345Z,29.25
2022-12-12T00:13:54.385Z,30.33
2022-12-12T00:16:24.027Z,31.58
2022-12-12T00:18:52.115Z,30.33
2022-12-12T00:21:23.241Z,31.23
2022-12-12T00:23:50.792Z,31.27
2022-12-12T00:26:24.518Z,31.38
2022-12-12T00:28:52.069Z,30.95
2022-12-12T00:31:20.492Z,31.38
2022-12-12T00:33:50.018Z,31.27
2022-12-12T00:36:21.529Z,31.30
2022-12-12T00:38:49.154Z,30.67
2022-12-12T00:41:18.630Z,33.33
2022-12-12T00:43:46.455Z,32.92
2022-12-12T00:46:16.049Z,32.80
2022-12-12T00:48:43.870Z,32.88
2022-12-12T00:51:15.461Z,32.55
2022-12-12T00:53:43.139Z,32.85
2022-12-12T00:56:10.667Z,32.25
2022-12-12T00:58:38.028Z,34.95
2022-12-12T01:01:17.707Z,34.78
2022-12-12T01:03:45.504Z,33.63
2022-12-12T01:06:12.927Z,35.50
2022-12-12T01:08:42.015Z,32.83
2022-12-12T01:11:10.663Z,36.65
2022-12-12T01:13:38.197Z,34.72
2022-12-12T01:16:06.828Z,36.55
2022-12-12T01:18:34.637Z,34.20
2022-12-12T01:21:02.491Z,35.95
2022-12-12T01:23:30.089Z,36.65
2022-12-12T01:26:14.669Z,35.15
2022-12-12T01:28:42.702Z,35.58
2022-12-12T01:31:10.744Z,34.85
2022-12-12T01:33:40.851Z,35.75
2022-12-12T01:36:08.251Z,36.30
2022-12-12T01:38:36.414Z,36.22
2022-12-12T01:41:03.900Z,35.33
2022-12-12T01:43:31.294Z,35.55
2022-12-12T01:45:58.713Z,35.95
2022-12-12T01:48:43.220Z,35.15
2022-12-12T01:51:15.398Z,34.78
2022-12-12T01:53:43.460Z,35.13
2022-12-12T01:56:12.905Z,35.95
2022-12-12T01:58:46.767Z,35.60
2022-12-12T02:01:15.316Z,35.00
2022-12-12T02:03:43.222Z,37.30
2022-12-12T02:06:15.146Z,36.53
2022-12-12T02:08:43.253Z,36.50
2022-12-12T02:11:10.601Z,36.70
2022-12-12T02:13:37.883Z,37.28
2022-12-12T02:16:35.853Z,34.00
2022-12-12T02:19:24.923Z,35.30
2022-12-12T02:22:00.468Z,36.83
2022-12-12T02:24:46.849Z,36.15
2022-12-12T02:27:46.395Z,36.30
2022-12-12T02:30:21.917Z,35.42
2022-12-12T02:33:13.929Z,38.95
2022-12-12T02:36:32.089Z,35.45
2022-12-12T02:39:32.059Z,37.15
2022-12-12T02:42:19.927Z,34.15
2022-12-12T02:44:59.653Z,34.53
2022-12-12T02:47:36.567Z,37.60
2022-12-12T02:50:17.025Z,35.47
2022-12-12T02:52:46.711Z,37.58
2022-12-12T02:55:15.495Z,35.05
2022-12-12T02:57:42.998Z,36.05
2022-12-12T03:00:21.535Z,36.28
2022-12-12T03:03:43.094Z,35.53
2022-12-12T03:06:54.895Z,35.50
2022-12-12T03:09:55.700Z,35.35
2022-12-12T03:12:43.313Z,34.35
2022-12-12T03:15:24.471Z,35.00
2022-12-12T03:18:02.541Z,34.95
2022-12-12T03:20:41.065Z,35.83
2022-12-12T03:23:22.324Z,36.17
2022-12-12T03:26:00.349Z,34.90
2022-12-12T03:28:35.690Z,35.95
2022-12-12T03:31:06.245Z,34.47
2022-12-12T03:33:59.412Z,34.95
2022-12-12T03:38:59.904Z,33.75
2022-12-12T03:41:37.692Z,34.25
2022-12-12T03:44:10.369Z,34.60
2022-12-12T03:46:43.686Z,37.03
2022-12-12T03:49:18.429Z,36.03
2022-12-12T03:51:58.847Z,33.97
2022-12-12T03:54:56.922Z,33.83
2022-12-12T03:57:33.311Z,33.45
2022-12-12T04:00:09.358Z,34.35
2022-12-12T04:02:54.023Z,33.47
2022-12-12T04:05:26.937Z,35.55
2022-12-12T04:08:14.702Z,34.70
2022-12-12T04:11:14.165Z,34.90
2022-12-12T04:13:53.852Z,32.40
2022-12-12T04:16:33.718Z,33.80
2022-12-12T04:19:13.818Z,33.35
2022-12-12T04:22:02.599Z,33.00
2022-12-12T04:24:42.563Z,34.17
2022-12-12T04:27:22.934Z,32.80
2022-12-12T04:30:09.789Z,33.33
2022-12-12T04:32:41.199Z,33.60
2022-12-12T04:35:15.499Z,33.28
2022-12-12T04:37:49.623Z,34.67
2022-12-12T04:40:21.980Z,33.20
2022-12-12T04:42:59.529Z,33.00
2022-12-12T04:45:31.003Z,32.90
2022-12-12T04:48:26.804Z,32.72
2022-12-12T04:50:54.715Z,32.40
2022-12-12T04:53:29.824Z,31.45
2022-12-12T04:55:58.335Z,30.35
2022-12-12T04:58:25.769Z,30.98
2022-12-12T05:00:59.053Z,29.98
2022-12-12T05:03:52.564Z,31.52
2022-12-12T05:06:26.136Z,32.30
2022-12-12T05:08:54.239Z,32.40
2022-12-12T05:11:22.637Z,31.48
2022-12-12T05:13:50.699Z,30.92
2022-12-12T05:16:29.490Z,32.33
2022-12-12T05:18:56.867Z,29.95
2022-12-12T05:21:24.219Z,29.23
2022-12-12T05:23:51.643Z,30.48
2022-12-12T05:26:39.117Z,30.52
2022-12-12T05:29:07.986Z,30.58
2022-12-12T05:31:35.828Z,30.25
2022-12-12T05:34:04.812Z,31.55
2022-12-12T05:36:32.436Z,31.27
2022-12-12T05:38:59.665Z,32.47
2022-12-12T05:41:26.961Z,31.33
2022-12-12T05:43:54.278Z,32.50
2022-12-12T05:46:21.565Z,32.20
2022-12-12T05:48:50.757Z,30.02
2022-12-12T05:51:18.855Z,30.85
2022-12-12T05:53:47.440Z,31.90
2022-12-12T05:56:14.750Z,30.83
2022-12-12T05:58:42.419Z,31.33
2022-12-12T06:01:10.105Z,31.33
2022-12-12T06:03:37.392Z,30.73
2022-12-12T06:06:04.899Z,31.80
2022-12-12T06:08:32.354Z,31.88
2022-12-12T06:11:01.241Z,30.40
2022-12-12T06:13:28.487Z,31.63
2022-12-12T06:15:55.963Z,32.25
2022-12-12T06:18:37.368Z,31.08
2022-12-12T06:21:09.426Z,31.13
2022-12-12T06:23:40.979Z,29.92
2022-12-12T06:26:11.791Z,30.10
2022-12-12T06:28:41.006Z,31.08
2022-12-12T06:31:12.131Z,31.50
2022-12-12T06:33:40.735Z,30.35
2022-12-12T06:36:25.314Z,32.15
2022-12-12T06:38:54.693Z,29.63
2022-12-12T06:41:24.382Z,30.48
2022-12-12T06:43:52.551Z,30.63
2022-12-12T06:46:23.475Z,31.70
2022-12-12T06:48:52.898Z,31.08
2022-12-12T06:51:23.892Z,31.35
2022-12-12T06:53:53.770Z,30.30
2022-12-12T06:56:23.940Z,30.88
2022-12-12T06:58:56.345Z,32.42
2022-12-12T07:01:24.857Z,30.55
2022-12-12T07:03:53.043Z,31.23
2022-12-12T07:06:23.398Z,30.83
2022-12-12T07:08:51.902Z,32.63
2022-12-12T07:11:23.510Z,33.45
2022-12-12T07:13:52.150Z,30.20
2022-12-12T07:16:19.955Z,31.33
2022-12-12T07:18:48.093Z,31.38
2022-12-12T07:21:18.361Z,31.23
2022-12-12T07:23:47.311Z,29.83
2022-12-12T07:26:18.192Z,29.50
2022-12-12T07:28:45.880Z,30.48
2022-12-12T07:31:15.449Z,30.98
2022-12-12T07:33:44.792Z,30.48
2022-12-12T07:36:13.979Z,32.05
2022-12-12T07:38:41.772Z,30.73
2022-12-12T07:41:15.364Z,28.90
2022-12-12T07:43:46.420Z,29.58
2022-12-12T07:46:17.397Z,30.25
2022-12-12T07:48:44.912Z,29.60
2022-12-12T07:51:13.026Z,29.23
2022-12-12T07:53:40.311Z,28.27
2022-12-12T07:56:12.212Z,31.15
2022-12-12T07:58:40.062Z,29.70
2022-12-12T08:01:26.166Z,30.92
2022-12-12T08:03:54.610Z,29.65
2022-12-12T08:06:23.229Z,30.85
2022-12-12T08:08:51.614Z,29.83
2022-12-12T08:11:21.802Z,27.80
2022-12-12T08:13:49.181Z,28.70
2022-12-12T08:16:38.634Z,30.23
2022-12-12T08:19:06.065Z,30.52
2022-12-12T08:21:35.182Z,29.60
2022-12-12T08:24:03.557Z,28.98
2022-12-12T08:26:32.233Z,29.60
2022-12-12T08:28:59.967Z,28.60
2022-12-12T08:31:28.188Z,28.92
2022-12-12T08:33:56.122Z,29.02
2022-12-12T08:36:34.922Z,29.40
2022-12-12T08:39:08.546Z,31.13
2022-12-12T08:41:38.087Z,29.15
2022-12-12T08:44:05.760Z,29.63
2022-12-12T08:46:33.667Z,29.83
2022-12-12T08:49:01.019Z,27.98
2022-12-12T08:51:28.464Z,28.17
2022-12-12T08:53:55.798Z,28.17
2022-12-12T08:56:24.454Z,28.38
2022-12-12T08:58:51.998Z,28.35
2022-12-12T09:01:22.257Z,28.17
2022-12-12T09:03:50.385Z,29.20
2022-12-12T09:06:17.963Z,28.33
2022-12-12T09:08:45.693Z,29.08
2022-12-12T09:11:13.491Z,27.55
2022-12-12T09:13:40.947Z,29.00
2022-12-12T09:16:09.154Z,27.77
2022-12-12T09:18:42.039Z,27.35
2022-12-12T09:21:13.697Z,27.42
2022-12-12T09:23:40.987Z,27.55
2022-12-12T09:26:09.444Z,27.58
2022-12-12T09:28:36.917Z,28.13
2022-12-12T09:31:09.231Z,26.90
2022-12-12T09:33:36.934Z,28.08
2022-12-12T09:36:07.093Z,27.38
2022-12-12T09:38:34.949Z,28.20
2022-12-12T09:41:11.402Z,28.38
2022-12-12T09:44:09.154Z,26.80
2022-12-12T09:47:07.817Z,27.13
2022-12-12T09:49:44.093Z,28.58
2022-12-12T09:52:17.960Z,27.30
2022-12-12T09:54:45.484Z,27.05
2022-12-12T09:57:43.207Z,27.13
2022-12-12T10:00:15.990Z,26.35
2022-12-12T10:02:49.819Z,26.40
2022-12-12T10:05:44.757Z,27.85
2022-12-12T10:08:40.617Z,26.35
2022-12-12T10:11:35.551Z,25.60
2022-12-12T10:14:05.209Z,26.95
2022-12-12T10:16:36.575Z,25.88
2022-12-12T10:19:16.668Z,26.48
2022-12-12T10:21:44.163Z,26.20
2022-12-12T10:24:36.693Z,28.20
2022-12-12T10:27:11.417Z,25.77
2022-12-12T10:29:49.127Z,25.45
2022-12-12T10:32:19.867Z,26.30
2022-12-12T10:35:26.360Z,25.70
2022-12-12T10:38:15.846Z,26.08
2022-12-12T10:41:05.450Z,26.38
2022-12-12T10:43:43.223Z,25.80
2022-12-12T10:46:25.614Z,26.65
2022-12-12T10:48:53.767Z,25.38
2022-12-12T10:51:24.203Z,24.27
2022-12-12T10:53:51.669Z,26.75
2022-12-12T10:56:29.109Z,26.88
2022-12-12T10:59:01.429Z,25.30
2022-12-12T11:02:08.487Z,25.25
2022-12-12T11:04:22.273Z,26.00
2022-12-12T11:06:52.065Z,26.83
2022-12-12T11:09:23.725Z,25.58
2022-12-12T11:11:59.208Z,25.10
2022-12-12T11:14:39.512Z,24.13
2022-12-12T11:17:21.229Z,24.50
2022-12-12T11:19:48.800Z,24.02
2022-12-12T11:22:16.957Z,26.42
2022-12-12T11:24:49.258Z,25.13
2022-12-12T11:27:42.710Z,24.30
2022-12-12T11:30:28.451Z,24.05
2022-12-12T11:32:56.483Z,23.88
2022-12-12T11:35:47.052Z,25.10
2022-12-12T11:38:20.653Z,24.77
2022-12-12T11:41:03.156Z,25.27
2022-12-12T11:43:39.311Z,25.10
2022-12-12T11:46:15.208Z,24.35
2022-12-12T11:48:51.483Z,24.13
2022-12-12T11:51:31.149Z,24.83
2022-12-12T11:53:59.547Z,24.38
2022-12-12T11:56:48.941Z,23.83
2022-12-12T11:59:50.557Z,24.02
2022-12-12T12:02:55.862Z,23.52
2022-12-12T12:05:47.601Z,22.33
2022-12-12T12:08:40.121Z,22.98
2022-12-12T12:11:31.492Z,22.65
2022-12-12T12:14:23.152Z,21.88
2022-12-12T12:17:12.238Z,21.60
2022-12-12T12:20:01.238Z,20.80
2022-12-12T12:22:40.657Z,22.60
2022-12-12T12:25:35.886Z,21.23
2022-12-12T12:28:26.238Z,21.20
2022-12-12T12:31:14.744Z,21.80
2022-12-12T12:33:58.538Z,21.20
2022-12-12T12:36:37.513Z,20.90
2022-12-12T12:39:18.681Z,20.20
2022-12-12T12:42:12.975Z,20.42
2022-12-12T12:44:43.614Z,21.55
2022-12-12T12:47:29.176Z,21.88
2022-12-12T12:50:02.480Z,21.42
2022-12-12T12:52:40.253Z,21.45
2022-12-12T12:55:16.107Z,21.00
2022-12-12T12:57:44.899Z,21.00
2022-12-12T13:00:24.249Z,21.35
2022-12-12T13:03:29.469Z,22.65
2022-12-12T13:05:59.955Z,20.77
2022-12-12T13:08:52.217Z,20.25
2022-12-12T13:11:39.001Z,20.15
2022-12-12T13:14:38.509Z,19.33
2022-12-12T13:17:08.163Z,19.38
2022-12-12T13:19:41.647Z,20.35
2022-12-12T13:22:28.374Z,19.00
2022-12-12T13:25:29.681Z,19.20
2022-12-12T13:27:59.230Z,18.25
2022-12-12T13:30:44.878Z,19.25
2022-12-12T13:33:18.444Z,18.88
2022-12-12T13:35:49.048Z,18.58
2022-12-12T13:38:26.607Z,18.35
2022-12-12T13:41:02.837Z,19.48
2022-12-12T13:43:40.412Z,18.83
2022-12-12T13:46:29.105Z,19.10
2022-12-12T13:49:14.395Z,20.27
2022-12-12T13:51:45.715Z,20.25
2022-12-12T13:54:14.496Z,18.48
2022-12-12T13:56:53.809Z,19.73
2022-12-12T13:59:26.819Z,18.58
2022-12-12T14:02:01.477Z,18.88
2022-12-12T14:04:37.396Z,19.48
2022-12-12T14:07:16.920Z,18.05
2022-12-12T14:09:50.025Z,19.50
2022-12-12T14:12:32.029Z,19.92
2022-12-12T14:15:26.707Z,19.42
2022-12-12T14:17:59.995Z,18.70
2022-12-12T14:20:31.217Z,18.08
2022-12-12T14:23:24.579Z,19.77
2022-12-12T14:28:28.324Z,18.08
2022-12-12T14:31:14.822Z,17.00
2022-12-12T14:34:18.613Z,17.77
2022-12-12T14:37:40.574Z,17.35
2022-12-12T14:40:32.744Z,17.20
2022-12-12T14:43:20.977Z,16.33
2022-12-12T14:45:50.160Z,16.27
2022-12-12T14:48:23.432Z,17.17
2022-12-12T14:51:00.764Z,16.92
2022-12-12T14:53:39.509Z,17.85
2022-12-12T14:56:10.878Z,17.77
2022-12-12T14:58:41.815Z,18.30
2022-12-12T15:01:09.275Z,19.65
2022-12-12T15:03:50.175Z,18.77
2022-12-12T15:06:28.260Z,17.58
2022-12-12T15:08:57.745Z,18.35
2022-12-12T15:11:28.190Z,18.52
2022-12-12T15:14:01.913Z,19.13
2022-12-12T15:17:08.882Z,18.55
2022-12-12T15:19:59.979Z,20.65
2022-12-12T15:22:46.240Z,20.05
2022-12-12T15:25:21.915Z,19.42
2022-12-12T15:28:20.340Z,19.25
2022-12-12T15:31:00.325Z,20.10
2022-12-12T15:36:33.287Z,19.07
2022-12-12T15:39:27.469Z,19.08
2022-12-12T15:41:58.067Z,21.15
2022-12-12T15:47:31.812Z,19.98
2022-12-12T15:50:16.070Z,22.20
2022-12-12T15:52:44.603Z,22.00
2022-12-12T15:55:20.857Z,22.63
2022-12-12T15:57:50.538Z,23.63
2022-12-12T16:00:41.693Z,23.50
2022-12-12T16:03:12.185Z,25.75
2022-12-12T16:05:41.237Z,23.08
2022-12-12T16:09:01.389Z,24.35
2022-12-12T16:11:55.753Z,31.85
2022-12-12T16:14:40.758Z,33.78
2022-12-12T16:17:32.294Z,33.53
2022-12-12T16:20:27.207Z,31.23
2022-12-12T16:23:25.038Z,29.35
2022-12-12T16:26:02.146Z,27.63
2022-12-12T16:28:34.381Z,29.05
2022-12-12T16:31:07.666Z,27.42
2022-12-12T16:33:39.873Z,25.92
2022-12-12T16:36:19.711Z,25.45
2022-12-12T16:38:50.265Z,23.75
2022-12-12T16:41:24.664Z,23.38
2022-12-12T16:43:52.167Z,24.02
2022-12-12T16:46:26.154Z,23.80
2022-12-12T16:48:54.774Z,24.48
2022-12-12T16:51:29.851Z,24.50
2022-12-12T16:54:05.113Z,23.95
2022-12-12T16:56:39.101Z,23.50
2022-12-12T16:59:08.243Z,25.27
2022-12-12T17:01:44.084Z,24.55
2022-12-12T17:04:22.246Z,24.58
2022-12-12T17:06:49.795Z,24.48
2022-12-12T17:09:17.380Z,25.08
2022-12-12T17:11:44.642Z,23.20
2022-12-12T17:14:23.697Z,24.77
2022-12-12T17:16:51.447Z,24.58
2022-12-12T17:19:19.539Z,24.98
2022-12-12T17:21:48.944Z,24.65
2022-12-12T17:24:16.606Z,24.33
2022-12-12T17:26:45.480Z,24.20
2022-12-12T17:29:13.404Z,23.98
2022-12-12T17:31:41.376Z,24.15
2022-12-12T17:34:08.785Z,23.85
2022-12-12T17:36:36.092Z,24.25
2022-12-12T17:39:04.361Z,25.00
2022-12-12T17:41:31.823Z,24.65
2022-12-12T17:43:59.471Z,24.23
2022-12-12T17:46:28.662Z,25.25
2022-12-12T17:48:58.805Z,25.90
2022-12-12T17:51:27.065Z,24.40
2022-12-12T17:53:55.511Z,25.23
2022-12-12T17:56:24.664Z,25.40
2022-12-12T17:58:52.478Z,26.27
2022-12-12T18:01:31.709Z,25.80
2022-12-12T18:04:06.099Z,25.73
2022-12-12T18:06:35.282Z,25.77
2022-12-12T18:09:03.540Z,23.98
2022-12-12T18:11:33.125Z,25.20
2022-12-12T18:14:02.422Z,25.40
2022-12-12T18:16:32.224Z,28.38
2022-12-12T18:19:00.157Z,25.00
2022-12-12T18:24:24.685Z,26.42
2022-12-12T18:26:54.295Z,24.95
2022-12-12T18:29:23.153Z,25.83
2022-12-12T18:31:50.892Z,24.88
2022-12-12T18:34:18.376Z,23.60
2022-12-12T18:36:45.972Z,24.15
2022-12-12T18:39:13.977Z,24.60
2022-12-12T18:41:44.182Z,23.75
2022-12-12T18:44:15.501Z,24.60
2022-12-12T18:46:44.821Z,24.98
2022-12-12T18:49:16.150Z,24.50
2022-12-12T18:51:48.574Z,24.42
2022-12-12T18:54:21.687Z,26.35
2022-12-12T18:56:49.357Z,23.98
2022-12-12T18:59:17.391Z,23.58
2022-12-12T19:01:45.280Z,23.33
2022-12-12T19:04:20.874Z,22.88
2022-12-12T19:06:53.653Z,23.05
2022-12-12T19:09:22.775Z,22.50
2022-12-12T19:11:50.534Z,23.60
2022-12-12T19:14:18.258Z,23.58
2022-12-12T19:16:45.686Z,23.52
2022-12-12T19:19:13.486Z,23.95
2022-12-12T19:21:42.331Z,23.65
2022-12-12T19:24:12.139Z,23.25
2022-12-12T19:26:41.890Z,24.25
2022-12-12T19:29:18.267Z,23.25
2022-12-12T19:31:45.897Z,23.45
2022-12-12T19:34:15.225Z,23.88
2022-12-12T19:37:14.956Z,23.30
2022-12-12T19:39:44.379Z,22.55
2022-12-12T19:42:13.967Z,21.63
2022-12-12T19:44:43.488Z,23.27
2022-12-12T19:47:13.602Z,22.40
2022-12-12T19:49:41.272Z,22.77
2022-12-12T19:52:13.873Z,23.77
2022-12-12T19:54:41.833Z,22.05
2022-12-12T19:57:09.066Z,23.05
2022-12-12T19:59:36.412Z,22.70
2022-12-12T20:02:05.578Z,24.42
2022-12-12T20:04:33.109Z,23.25
2022-12-12T20:07:00.367Z,24.13
2022-12-12T20:09:29.352Z,23.83
2022-12-12T20:11:58.150Z,24.08
2022-12-12T20:14:33.759Z,24.90
2022-12-12T20:17:05.103Z,23.38
2022-12-12T20:19:33.780Z,24.33
2022-12-12T20:22:02.599Z,24.45
2022-12-12T20:24:32.013Z,24.77
2022-12-12T20:27:00.171Z,24.33
2022-12-12T20:29:27.672Z,24.00
2022-12-12T20:31:55.104Z,23.83
2022-12-12T20:34:24.642Z,24.15
2022-12-12T20:36:52.397Z,24.20
2022-12-12T20:39:22.112Z,24.55
2022-12-12T20:41:50.500Z,25.20
2022-12-12T20:44:17.809Z,24.67
2022-12-12T20:46:46.631Z,25.08
2022-12-12T20:49:16.976Z,26.02
2022-12-12T20:51:55.429Z,24.67
2022-12-12T20:54:24.969Z,27.25
2022-12-12T20:56:53.358Z,26.15
2022-12-12T20:59:20.853Z,25.40
2022-12-12T21:01:48.325Z,25.63
2022-12-12T21:04:15.786Z,26.70
2022-12-12T21:06:48.594Z,26.45
2022-12-12T21:09:24.457Z,25.42
2022-12-12T21:11:58.436Z,26.52
2022-12-12T21:14:27.650Z,25.85
2022-12-12T21:16:55.214Z,26.42
2022-12-12T21:19:23.581Z,27.63
2022-12-12T21:21:52.145Z,28.85
2022-12-12T21:24:19.806Z,29.17
2022-12-12T21:26:47.772Z,28.67
2022-12-12T21:29:16.174Z,26.58
2022-12-12T21:31:50.404Z,27.63
2022-12-12T21:34:21.030Z,25.95
2022-12-12T21:36:51.783Z,26.88
2022-12-12T21:39:19.664Z,26.38
2022-12-12T21:41:47.355Z,25.60
2022-12-12T21:44:14.765Z,26.52
2022-12-12T21:46:49.536Z,25.27
2022-12-12T21:49:29.478Z,26.00
2022-12-12T21:52:22.586Z,25.13
2022-12-12T21:54:50.724Z,24.42
2022-12-12T21:57:24.629Z,24.30
2022-12-12T21:59:52.730Z,25.08
2022-12-12T22:02:26.558Z,24.30
2022-12-12T22:04:53.970Z,24.67
2022-12-12T22:07:25.448Z,25.20
2022-12-12T22:10:10.446Z,23.70
2022-12-12T22:12:38.832Z,24.70
2022-12-12T22:15:06.598Z,24.83
2022-12-12T22:17:35.000Z,25.42
2022-12-12T22:20:02.281Z,24.92
2022-12-12T22:22:29.606Z,24.27
2022-12-12T22:24:56.988Z,24.30
2022-12-12T22:27:24.288Z,25.77
2022-12-12T22:29:51.553Z,23.60
2022-12-12T22:32:18.789Z,24.30
2022-12-12T22:34:46.915Z,24.27
2022-12-12T22:37:14.147Z,24.52
2022-12-12T22:39:41.404Z,24.55
2022-12-12T22:42:08.993Z,25.48
2022-12-12T22:44:37.416Z,22.67
2022-12-12T22:47:04.918Z,24.60
2022-12-12T22:49:32.318Z,24.83
2022-12-12T22:52:00.299Z,25.08
2022-12-12T22:54:27.919Z,23.50
2022-12-12T22:56:55.593Z,23.35
2022-12-12T22:59:23.008Z,24.95
2022-12-12T23:01:50.326Z,25.42
2022-12-12T23:04:17.613Z,25.70
2022-12-12T23:06:45.369Z,25.73
2022-12-12T23:09:15.967Z,25.30
2022-12-12T23:11:44.640Z,24.30
2022-12-12T23:14:14.851Z,24.98
2022-12-12T23:16:42.920Z,24.27
2022-12-12T23:19:10.780Z,24.20
2022-12-12T23:21:38.351Z,23.67
2022-12-12T23:24:06.992Z,25.80
2022-12-12T23:26:36.607Z,26.08
2022-12-12T23:29:07.096Z,25.92
2022-12-12T23:31:37.135Z,26.48
2022-12-12T23:34:07.742Z,27.83
2022-12-12T23:36:35.003Z,26.42
2022-12-12T23:39:06.323Z,26.60
2022-12-12T23:41:35.085Z,27.20
2022-12-12T23:44:02.406Z,28.02
2022-12-12T23:46:33.694Z,29.27
2022-12-12T23:49:03.013Z,28.70
2022-12-12T23:51:38.855Z,30.55
2022-12-12T23:54:08.942Z,28.67
2022-12-12T23:56:37.614Z,27.00
2022-12-12T23:59:05.320Z,26.85
